Time;durP1;ratioP1;P1;durP2;ratioP2;P2;SDS_P1;SDS_P2;PMS_P1;PMS_P2;Temp;Humidity;BMP_temperature;BMP_pressure;BME280_temperature;BME280_humidity;BME280_pressure;Samples;Min_cycle;Max_cycle;Signal;HPM_P1;HPM_P2
2023/06/12 00:01:39;;;;;;;7.60;7.10;;;30.20;47.60;;;;;;4992818;28;20421;-74
2023/06/12 00:04:08;;;;;;;8.27;7.67;;;30.20;47.60;;;;;;4991630;28;20413;-74
2023/06/12 00:06:35;;;;;;;7.80;7.10;;;30.20;47.60;;;;;;4991778;28;20413;-74
2023/06/12 00:09:03;;;;;;;7.23;6.73;;;30.20;47.60;;;;;;4991788;28;20402;-74
2023/06/12 00:11:34;;;;;;;7.63;7.13;;;30.10;47.60;;;;;;4991386;28;20433;-74
2023/06/12 00:14:00;;;;;;;6.87;6.37;;;30.10;47.60;;;;;;4992491;28;20429;-74
2023/06/12 00:16:28;;;;;;;7.20;6.70;;;30.10;47.60;;;;;;4992574;28;21001;-74
2023/06/12 00:18:57;;;;;;;7.60;7.10;;;30.10;47.70;;;;;;4990527;28;20221;-74
2023/06/12 00:21:23;;;;;;;6.87;6.23;;;30.00;47.70;;;;;;4992387;28;20409;-74
2023/06/12 00:23:49;;;;;;;7.40;6.70;;;30.00;47.70;;;;;;4974912;28;20452;-74
2023/06/12 00:26:19;;;;;;;7.53;6.97;;;30.00;47.70;;;;;;4991179;28;20812;-74
2023/06/12 00:28:49;;;;;;;7.73;7.13;;;30.00;47.70;;;;;;4990718;28;20532;-74
2023/06/12 00:31:20;;;;;;;7.27;6.73;;;29.90;47.60;;;;;;4991166;28;20505;-74
2023/06/12 00:33:50;;;;;;;7.43;6.83;;;29.90;47.60;;;;;;4990936;28;20405;-74
2023/06/12 00:36:16;;;;;;;7.53;7.03;;;29.90;47.70;;;;;;4974598;28;20476;-74
2023/06/12 00:38:42;;;;;;;7.00;6.50;;;29.90;47.70;;;;;;5058409;23;20501;-74
2023/06/12 00:41:08;;;;;;;8.33;7.67;;;29.80;47.60;;;;;;4955963;28;20217;-74
2023/06/12 00:43:35;;;;;;;7.67;7.03;;;29.80;47.60;;;;;;4971627;28;20442;-74
2023/06/12 00:46:03;;;;;;;8.23;7.53;;;29.80;47.60;;;;;;4973015;28;20245;-73
2023/06/12 00:48:31;;;;;;;7.20;6.70;;;29.80;47.70;;;;;;4973553;28;20398;-74
2023/06/12 00:50:59;;;;;;;8.23;7.53;;;29.70;47.60;;;;;;4978543;28;20408;-74
2023/06/12 00:53:32;;;;;;;8.73;8.13;;;29.80;47.60;;;;;;4978472;28;20400;-74
2023/06/12 00:56:02;;;;;;;7.93;7.30;;;29.70;47.60;;;;;;4994811;28;20472;-74
2023/06/12 00:58:29;;;;;;;8.03;7.33;;;29.70;47.60;;;;;;4978123;28;20460;-74
2023/06/12 01:00:56;;;;;;;8.23;7.57;;;29.60;47.60;;;;;;4978413;28;20444;-74
2023/06/12 01:03:25;;;;;;;7.27;6.77;;;29.60;47.60;;;;;;4978645;28;20928;-74
2023/06/12 01:05:53;;;;;;;8.47;7.67;;;29.60;47.60;;;;;;4994125;28;20869;-73
2023/06/12 01:08:41;;;;;;;7.97;7.30;;;29.60;47.60;;;;;;4978237;28;20447;-74
2023/06/12 01:11:11;;;;;;;7.03;6.50;;;29.50;47.70;;;;;;4978038;28;20456;-74
2023/06/12 01:13:41;;;;;;;8.90;8.00;;;29.50;47.60;;;;;;4994057;28;20933;-74
2023/06/12 01:16:07;;;;;;;8.03;7.53;;;29.50;47.60;;;;;;4993932;28;20458;-73
2023/06/12 01:18:33;;;;;;;7.67;7.07;;;29.50;47.60;;;;;;4993915;28;20913;-74
2023/06/12 01:21:07;;;;;;;8.13;7.33;;;29.40;47.60;;;;;;4994000;28;20492;-74
2023/06/12 01:23:39;;;;;;;7.87;7.27;;;29.40;48.30;;;;;;4962264;28;20498;-74
2023/06/12 01:26:36;;;;;;;8.87;7.90;;;29.40;47.70;;;;;;4993895;28;20440;-74
2023/06/12 01:29:34;;;;;;;7.27;6.67;;;29.40;47.70;;;;;;4993160;28;20440;-74
2023/06/12 01:32:11;;;;;;;7.90;7.17;;;29.30;47.60;;;;;;4993576;28;20445;-74
2023/06/12 01:34:53;;;;;;;8.00;7.40;;;29.30;47.60;;;;;;4977497;28;20448;-74
2023/06/12 01:37:23;;;;;;;7.47;6.87;;;29.20;47.60;;;;;;4977556;28;20448;-74
2023/06/12 01:39:58;;;;;;;8.17;7.60;;;29.30;47.60;;;;;;4993025;28;20416;-74
2023/06/12 01:42:29;;;;;;;8.57;7.87;;;29.20;47.60;;;;;;4993853;28;20459;-72
2023/06/12 01:45:04;;;;;;;7.80;7.20;;;29.20;47.60;;;;;;4962356;28;20530;-74
2023/06/12 01:47:30;;;;;;;8.33;7.73;;;29.20;47.60;;;;;;4977671;28;20424;-74
2023/06/12 01:49:59;;;;;;;7.80;7.10;;;29.10;47.60;;;;;;4977234;28;20573;-74
2023/06/12 01:52:28;;;;;;;7.67;7.07;;;29.10;47.60;;;;;;4992954;28;20411;-72
2023/06/12 01:54:58;;;;;;;7.87;7.37;;;29.10;47.60;;;;;;4993434;28;20470;-74
2023/06/12 01:57:24;;;;;;;7.70;7.20;;;29.10;47.60;;;;;;4977518;28;20401;-73
2023/06/12 01:59:56;;;;;;;7.97;7.33;;;29.00;47.60;;;;;;4993895;28;20757;-74
2023/06/12 02:02:23;;;;;;;7.80;7.20;;;29.00;47.50;;;;;;4961606;28;20424;-74
2023/06/12 02:04:51;;;;;;;7.30;6.80;;;29.00;47.50;;;;;;4992804;28;20432;-74
2023/06/12 02:07:20;;;;;;;8.30;7.60;;;29.00;47.50;;;;;;4977160;28;20443;-74
2023/06/12 02:09:47;;;;;;;9.00;8.07;;;29.00;47.60;;;;;;4977294;28;20420;-74
2023/06/12 02:12:13;;;;;;;8.20;7.60;;;29.00;47.50;;;;;;4977066;28;21037;-74
2023/06/12 02:14:42;;;;;;;7.63;7.03;;;28.90;47.40;;;;;;4992646;28;20439;-74
2023/06/12 02:17:13;;;;;;;8.33;7.63;;;28.90;47.50;;;;;;4961592;28;20422;-74
2023/06/12 02:19:40;;;;;;;8.20;7.50;;;28.90;47.40;;;;;;4992951;28;20468;-74
2023/06/12 02:22:06;;;;;;;8.50;7.90;;;28.80;47.40;;;;;;4984352;28;20441;-74
2023/06/12 02:24:33;;;;;;;8.23;7.63;;;28.90;47.40;;;;;;4973848;28;20455;-74
2023/06/12 02:27:04;;;;;;;7.80;7.20;;;28.80;47.30;;;;;;4958063;28;20425;-74
2023/06/12 02:29:30;;;;;;;8.00;7.50;;;28.80;47.30;;;;;;4957659;28;20633;-74
2023/06/12 02:32:01;;;;;;;7.93;7.43;;;28.80;47.30;;;;;;4973677;28;20449;-73
2023/06/12 02:34:30;;;;;;;8.63;7.93;;;28.70;47.30;;;;;;4973540;28;20810;-74
2023/06/12 02:36:56;;;;;;;8.73;8.03;;;28.70;47.30;;;;;;4989688;28;20453;-73
2023/06/12 02:39:27;;;;;;;8.40;7.67;;;28.70;47.30;;;;;;4989156;28;20491;-74
2023/06/12 02:41:53;;;;;;;7.33;6.83;;;28.60;47.20;;;;;;4992844;28;20409;-74
2023/06/12 02:44:23;;;;;;;11.53;8.40;;;28.60;47.30;;;;;;4961407;28;20452;-74
2023/06/12 02:46:57;;;;;;;7.67;7.17;;;28.60;47.30;;;;;;4993297;28;20417;-74
2023/06/12 02:49:29;;;;;;;8.17;7.57;;;28.60;47.40;;;;;;4961240;28;20439;-74
2023/06/12 02:51:59;;;;;;;7.70;7.10;;;28.60;47.40;;;;;;4961646;28;20421;-74
2023/06/12 02:54:27;;;;;;;8.27;7.67;;;28.50;47.40;;;;;;4993074;28;20496;-74
2023/06/12 02:56:57;;;;;;;7.40;6.90;;;28.50;47.40;;;;;;4960824;28;20523;-74
2023/06/12 02:59:24;;;;;;;10.73;7.87;;;28.50;47.40;;;;;;4993755;28;20485;-74
2023/06/12 03:01:57;;;;;;;8.43;7.77;;;28.40;47.40;;;;;;4993348;28;20440;-73
2023/06/12 03:04:53;;;;;;;8.77;8.17;;;28.40;47.50;;;;;;4989203;28;20452;-72
2023/06/12 03:07:23;;;;;;;8.97;8.37;;;28.40;47.50;;;;;;4995909;28;20917;-74
2023/06/12 03:09:51;;;;;;;8.80;8.10;;;28.40;47.60;;;;;;4996040;28;20397;-74
2023/06/12 03:12:17;;;;;;;7.87;7.17;;;28.30;47.50;;;;;;4979835;28;21010;-74
2023/06/12 03:14:44;;;;;;;8.00;7.50;;;28.30;47.60;;;;;;4996158;28;20483;-74
2023/06/12 03:17:10;;;;;;;8.20;7.70;;;28.30;47.60;;;;;;4996052;28;20169;-74
2023/06/12 03:19:38;;;;;;;8.27;7.67;;;28.30;47.70;;;;;;4996151;28;20447;-74
2023/06/12 03:22:05;;;;;;;8.40;7.90;;;28.30;47.70;;;;;;4995689;28;20527;-74
2023/06/12 03:24:38;;;;;;;8.10;7.50;;;28.20;47.70;;;;;;4995351;28;20494;-73
2023/06/12 03:27:11;;;;;;;8.70;8.00;;;28.20;47.70;;;;;;4980989;28;20429;-74
2023/06/12 03:29:37;;;;;;;8.87;8.27;;;28.20;47.80;;;;;;4979086;28;20444;-73
2023/06/12 03:32:06;;;;;;;8.50;7.90;;;28.20;47.90;;;;;;4980048;28;20783;-74
2023/06/12 03:34:46;;;;;;;8.60;8.00;;;28.10;47.80;;;;;;4979392;28;20558;-74
2023/06/12 03:37:11;;;;;;;8.20;7.40;;;28.10;47.80;;;;;;4979791;28;20487;-74
2023/06/12 03:39:37;;;;;;;8.70;8.00;;;28.10;47.90;;;;;;4963521;28;20516;-73
2023/06/12 03:42:04;;;;;;;8.90;8.20;;;28.10;47.90;;;;;;4995516;28;20444;-74
2023/06/12 03:44:52;;;;;;;7.80;7.30;;;28.10;48.00;;;;;;4995514;28;20444;-73
2023/06/12 03:47:19;;;;;;;8.37;7.67;;;28.00;47.90;;;;;;4979484;28;20482;-74
2023/06/12 03:49:46;;;;;;;8.37;7.67;;;28.00;48.00;;;;;;4994447;28;21028;-74
2023/06/12 03:52:14;;;;;;;8.43;7.77;;;28.00;48.00;;;;;;4978526;28;20798;-74
2023/06/12 03:54:40;;;;;;;8.33;7.73;;;27.90;47.90;;;;;;4995085;28;20875;-74
2023/06/12 03:57:07;;;;;;;8.40;7.80;;;27.90;48.00;;;;;;4979404;28;20424;-72
2023/06/12 03:59:36;;;;;;;8.83;8.13;;;27.90;48.60;;;;;;4979555;28;20436;-74
2023/06/12 04:02:03;;;;;;;8.53;7.73;;;27.90;48.10;;;;;;4995341;28;20429;-73
2023/06/12 04:04:29;;;;;;;7.93;7.37;;;27.90;48.10;;;;;;4971881;28;20437;-70
2023/06/12 04:06:56;;;;;;;8.37;7.77;;;27.90;48.10;;;;;;4973534;28;20761;-69
2023/06/12 04:09:22;;;;;;;7.90;7.30;;;27.90;48.20;;;;;;4973284;28;20789;-70
2023/06/12 04:11:49;;;;;;;8.50;7.80;;;27.90;48.20;;;;;;4956195;28;20524;-71
2023/06/12 04:14:18;;;;;;;8.13;7.63;;;27.80;48.20;;;;;;4973187;28;20402;-71
2023/06/12 04:16:44;;;;;;;8.87;8.17;;;27.80;48.30;;;;;;4955538;28;20454;-72
2023/06/12 04:19:16;;;;;;;8.50;7.90;;;27.70;48.30;;;;;;4940216;28;20430;-71
2023/06/12 04:21:45;;;;;;;9.00;7.67;;;27.70;48.40;;;;;;4972610;28;20739;-71
2023/06/12 04:24:15;;;;;;;7.97;7.47;;;27.70;48.40;;;;;;4940340;28;20457;-72
2023/06/12 04:26:46;;;;;;;8.87;8.07;;;27.70;48.50;;;;;;4972272;28;20786;-71
2023/06/12 04:29:16;;;;;;;7.90;7.30;;;27.70;48.50;;;;;;4973459;28;20444;-71
2023/06/12 04:31:44;;;;;;;8.40;7.80;;;27.70;48.50;;;;;;4958004;28;20756;-71
2023/06/12 04:34:15;;;;;;;9.30;8.60;;;27.60;48.60;;;;;;4973046;28;20510;-71
2023/06/12 04:36:45;;;;;;;8.90;8.30;;;27.60;48.60;;;;;;4973111;28;20468;-71
2023/06/12 04:39:13;;;;;;;7.90;7.30;;;27.60;48.70;;;;;;4974441;28;20946;-71
2023/06/12 04:41:40;;;;;;;8.30;7.60;;;27.60;48.70;;;;;;4957319;28;20414;-71
2023/06/12 04:44:06;;;;;;;8.20;7.60;;;27.60;48.80;;;;;;4973105;28;20410;-71
2023/06/12 04:46:38;;;;;;;10.20;7.73;;;27.50;48.80;;;;;;4957322;28;20445;-71
2023/06/12 04:49:04;;;;;;;8.07;7.27;;;27.50;48.90;;;;;;4972980;28;20433;-71
2023/06/12 04:51:30;;;;;;;9.10;8.30;;;27.50;48.90;;;;;;4957004;28;20573;-71
2023/06/12 04:54:01;;;;;;;8.40;7.70;;;27.50;49.00;;;;;;4941083;28;20434;-71
2023/06/12 04:56:31;;;;;;;8.27;7.67;;;27.50;49.00;;;;;;4972908;28;21109;-71
2023/06/12 04:59:01;;;;;;;8.30;7.60;;;27.50;49.10;;;;;;4972979;28;20406;-71
2023/06/12 05:01:27;;;;;;;9.10;8.40;;;27.40;49.10;;;;;;4957128;28;20815;-71
2023/06/12 05:03:54;;;;;;;8.43;7.93;;;27.50;49.20;;;;;;4972412;28;20410;-71
2023/06/12 05:06:20;;;;;;;9.47;8.77;;;27.40;49.20;;;;;;4972761;28;20504;-71
2023/06/12 05:08:53;;;;;;;8.73;8.07;;;27.40;49.30;;;;;;4956485;28;20434;-71
2023/06/12 05:11:21;;;;;;;7.93;7.40;;;27.40;49.40;;;;;;4972885;28;20445;-71
2023/06/12 05:13:49;;;;;;;8.83;8.10;;;27.40;49.40;;;;;;4973769;28;20442;-71
2023/06/12 05:16:17;;;;;;;8.10;7.50;;;27.30;49.40;;;;;;4956471;28;20513;-71
2023/06/12 05:18:44;;;;;;;8.40;7.67;;;27.30;49.40;;;;;;4972465;28;20448;-71
2023/06/12 05:21:13;;;;;;;7.80;7.10;;;27.30;49.50;;;;;;4972481;28;20406;-71
2023/06/12 05:23:40;;;;;;;7.57;6.97;;;27.30;49.50;;;;;;4956446;28;20962;-71
2023/06/12 05:26:06;;;;;;;8.07;7.40;;;27.30;49.60;;;;;;4956572;28;20442;-71
2023/06/12 05:28:34;;;;;;;8.00;7.20;;;27.30;49.60;;;;;;4972410;28;20413;-72
2023/06/12 05:31:01;;;;;;;8.80;8.10;;;27.30;49.70;;;;;;4972377;28;20442;-72
2023/06/12 05:33:27;;;;;;;8.43;7.83;;;27.30;49.70;;;;;;4972336;28;20453;-73
2023/06/12 05:35:53;;;;;;;8.70;8.00;;;27.30;49.80;;;;;;4955986;28;21269;-74
2023/06/12 05:38:22;;;;;;;9.10;8.40;;;27.30;49.80;;;;;;4954905;28;20467;-74
2023/06/12 05:40:51;;;;;;;8.60;7.90;;;27.30;49.90;;;;;;4954655;28;20832;-74
2023/06/12 05:43:17;;;;;;;8.90;8.30;;;27.30;50.00;;;;;;4971729;28;20406;-74
2023/06/12 05:45:44;;;;;;;9.83;8.73;;;27.20;50.00;;;;;;4956076;28;20791;-74
2023/06/12 05:48:12;;;;;;;8.23;7.63;;;27.20;50.00;;;;;;4956959;28;20497;-74
2023/06/12 05:50:41;;;;;;;8.47;7.80;;;27.20;50.10;;;;;;4956291;28;20509;-73
2023/06/12 05:53:11;;;;;;;8.93;8.13;;;27.20;50.20;;;;;;4972068;28;20513;-73
2023/06/12 05:55:42;;;;;;;8.63;7.87;;;27.20;50.30;;;;;;4956003;28;20480;-73
2023/06/12 05:58:09;;;;;;;9.03;8.13;;;27.20;50.40;;;;;;4956167;28;20943;-74
2023/06/12 06:00:40;;;;;;;8.33;7.57;;;27.20;50.50;;;;;;4956079;28;20405;-73
2023/06/12 06:03:23;;;;;;;9.20;8.40;;;27.20;50.50;;;;;;4956537;28;20951;-73
2023/06/12 06:05:49;;;;;;;9.43;8.63;;;27.20;50.60;;;;;;4971892;28;20442;-74
2023/06/12 06:08:16;;;;;;;8.30;7.70;;;27.10;50.60;;;;;;4940107;28;20932;-73
2023/06/12 06:10:47;;;;;;;7.90;7.27;;;27.10;50.70;;;;;;4971996;28;20418;-73
2023/06/12 06:13:18;;;;;;;9.00;8.10;;;27.10;50.70;;;;;;4955751;28;20414;-74
2023/06/12 06:15:48;;;;;;;9.40;8.17;;;27.10;50.70;;;;;;4973443;28;20991;-73
2023/06/12 06:18:15;;;;;;;9.27;8.33;;;27.10;50.70;;;;;;4976109;28;20414;-74
2023/06/12 06:20:41;;;;;;;9.90;8.53;;;27.10;50.80;;;;;;4976062;28;20406;-74
2023/06/12 06:23:07;;;;;;;8.70;7.93;;;27.10;50.70;;;;;;4943958;28;20414;-73
2023/06/12 06:25:38;;;;;;;9.70;8.90;;;27.10;50.80;;;;;;4975219;28;20450;-74
2023/06/12 06:28:05;;;;;;;9.57;8.70;;;27.10;50.80;;;;;;4943790;28;20524;-75
2023/06/12 06:30:35;;;;;;;9.20;8.33;;;27.10;50.80;;;;;;4975588;28;20414;-74
2023/06/12 06:33:03;;;;;;;9.00;8.30;;;27.10;50.80;;;;;;4975674;28;20406;-74
2023/06/12 06:35:32;;;;;;;10.70;8.67;;;27.10;50.80;;;;;;4943413;28;20468;-74
2023/06/12 06:37:58;;;;;;;9.23;8.30;;;27.10;50.80;;;;;;4943489;28;20954;-74
2023/06/12 06:40:27;;;;;;;8.37;7.77;;;27.10;50.80;;;;;;4975520;28;20742;-74
2023/06/12 06:42:53;;;;;;;9.17;8.37;;;27.10;50.80;;;;;;4959527;28;21186;-74
2023/06/12 06:45:23;;;;;;;9.03;8.40;;;27.10;50.80;;;;;;4959533;28;20820;-73
2023/06/12 06:47:53;;;;;;;9.10;8.47;;;27.10;50.80;;;;;;4975455;28;20405;-73
2023/06/12 06:50:20;;;;;;;7.90;7.30;;;27.10;50.70;;;;;;4959285;28;20466;-73
2023/06/12 06:52:47;;;;;;;11.37;10.50;;;27.10;50.70;;;;;;4975092;28;20914;-73
2023/06/12 06:55:14;;;;;;;8.07;7.47;;;27.10;50.70;;;;;;4975212;28;20971;-73
2023/06/12 06:57:42;;;;;;;8.67;8.07;;;27.10;50.60;;;;;;4959145;28;20498;-73
2023/06/12 07:00:09;;;;;;;8.40;7.80;;;27.10;50.60;;;;;;4959068;28;20452;-74
2023/06/12 07:02:42;;;;;;;9.17;8.27;;;27.10;50.50;;;;;;4943156;28;20430;-73
2023/06/12 07:05:10;;;;;;;7.13;6.60;;;27.10;50.50;;;;;;4958838;28;20535;-74
2023/06/12 07:07:39;;;;;;;8.80;8.10;;;27.10;50.50;;;;;;4959263;28;20434;-74
2023/06/12 07:10:09;;;;;;;8.50;7.80;;;27.10;50.50;;;;;;4974952;28;20464;-74
2023/06/12 07:12:38;;;;;;;8.80;8.00;;;27.20;50.50;;;;;;4959001;28;20438;-74
2023/06/12 07:15:05;;;;;;;9.10;8.40;;;27.20;50.50;;;;;;4958828;28;20825;-74
2023/06/12 07:17:35;;;;;;;8.17;7.57;;;27.20;51.00;;;;;;4943945;28;20461;-74
2023/06/12 07:20:01;;;;;;;11.30;7.47;;;27.20;50.40;;;;;;4959411;28;20429;-73
2023/06/12 07:22:30;;;;;;;8.47;7.77;;;27.20;50.50;;;;;;4976026;28;20398;-74
2023/06/12 07:24:58;;;;;;;8.60;8.00;;;27.20;50.50;;;;;;4942852;28;20445;-74
2023/06/12 07:27:28;;;;;;;9.30;8.53;;;27.20;50.50;;;;;;4957538;28;20882;-74
2023/06/12 07:29:57;;;;;;;9.20;8.50;;;27.20;50.50;;;;;;4942653;28;20425;-75
2023/06/12 07:32:27;;;;;;;8.77;8.17;;;27.20;50.50;;;;;;4957662;28;20422;-75
2023/06/12 07:34:59;;;;;;;8.87;8.13;;;27.30;50.50;;;;;;4961147;28;20463;-75
2023/06/12 07:37:27;;;;;;;8.47;7.93;;;27.30;50.50;;;;;;4993079;28;20827;-75
2023/06/12 07:39:53;;;;;;;9.90;8.23;;;27.30;50.50;;;;;;4976866;28;20912;-74
2023/06/12 07:42:19;;;;;;;8.33;7.73;;;27.30;50.50;;;;;;4960713;28;20787;-75
2023/06/12 07:44:46;;;;;;;8.80;8.20;;;27.30;50.50;;;;;;4993011;28;20447;-75
2023/06/12 07:47:15;;;;;;;9.50;8.83;;;27.30;50.50;;;;;;4976971;28;20417;-75
2023/06/12 07:49:43;;;;;;;11.13;10.37;;;27.30;50.50;;;;;;4976636;28;20425;-74
2023/06/12 07:52:12;;;;;;;9.90;9.10;;;27.30;50.50;;;;;;4976468;28;20429;-75
2023/06/12 07:54:38;;;;;;;10.10;9.30;;;27.30;50.50;;;;;;4976558;28;20525;-75
2023/06/12 07:57:06;;;;;;;10.10;9.40;;;27.40;50.50;;;;;;4976516;28;20433;-76
2023/06/12 07:59:32;;;;;;;9.53;8.70;;;27.40;50.60;;;;;;4992604;28;20410;-75
2023/06/12 08:02:02;;;;;;;9.70;8.93;;;27.40;50.60;;;;;;4976555;28;20435;-75
2023/06/12 08:04:29;;;;;;;9.23;8.53;;;27.40;50.60;;;;;;4957031;28;20494;-75
2023/06/12 08:07:02;;;;;;;9.73;9.13;;;27.40;50.60;;;;;;4941679;28;20410;-74
2023/06/12 08:09:34;;;;;;;9.83;9.13;;;27.40;50.60;;;;;;4972904;28;20508;-75
2023/06/12 08:12:01;;;;;;;9.40;8.70;;;27.50;50.60;;;;;;4940765;28;20410;-75
2023/06/12 08:14:30;;;;;;;9.63;8.93;;;27.50;50.60;;;;;;4956956;28;20438;-75
2023/06/12 08:16:58;;;;;;;9.30;8.67;;;27.50;50.70;;;;;;4924992;28;20469;-75
2023/06/12 08:19:26;;;;;;;9.53;8.83;;;27.50;50.70;;;;;;4972670;28;20461;-75
2023/06/12 08:21:53;;;;;;;8.80;8.20;;;27.60;50.70;;;;;;4941795;28;20399;-75
2023/06/12 08:24:19;;;;;;;9.30;8.50;;;27.60;50.80;;;;;;4975738;28;20405;-75
2023/06/12 08:26:48;;;;;;;9.40;8.77;;;27.60;50.70;;;;;;4975740;28;20405;-74
2023/06/12 08:29:17;;;;;;;9.20;8.60;;;27.60;50.60;;;;;;4959960;28;20425;-74
2023/06/12 08:31:45;;;;;;;9.53;8.73;;;27.60;50.70;;;;;;4975755;28;20444;-74
2023/06/12 08:34:13;;;;;;;9.07;8.27;;;27.60;50.60;;;;;;4982711;28;20428;-75
2023/06/12 08:36:42;;;;;;;9.07;8.47;;;27.70;50.60;;;;;;4978559;28;20466;-74
2023/06/12 08:39:09;;;;;;;9.47;8.77;;;27.70;50.60;;;;;;4994408;28;20436;-75
2023/06/12 08:41:46;;;;;;;9.63;8.93;;;27.70;50.60;;;;;;4979023;28;20451;-74
2023/06/12 08:44:13;;;;;;;9.30;8.57;;;27.70;50.60;;;;;;5012458;28;20848;-74
2023/06/12 08:46:45;;;;;;;9.13;8.53;;;27.80;50.60;;;;;;5065988;22;20532;-70
2023/06/12 08:49:15;;;;;;;11.13;10.23;;;27.80;50.60;;;;;;4961338;28;20969;-73
2023/06/12 08:51:44;;;;;;;9.97;9.10;;;27.80;50.60;;;;;;4976549;28;20398;-73
2023/06/12 08:54:16;;;;;;;9.20;8.60;;;27.80;50.60;;;;;;4977166;28;20612;-72
2023/06/12 08:56:46;;;;;;;9.30;8.60;;;27.80;50.60;;;;;;4975904;28;20468;-73
2023/06/12 08:59:14;;;;;;;9.17;8.57;;;27.80;50.50;;;;;;4976098;28;21033;-73
2023/06/12 09:01:45;;;;;;;10.10;9.30;;;27.90;50.60;;;;;;4975935;28;20839;-73
2023/06/12 09:04:21;;;;;;;10.07;9.37;;;27.90;50.60;;;;;;4992898;28;20910;-73
2023/06/12 09:07:01;;;;;;;9.13;8.43;;;27.90;50.60;;;;;;4992828;28;20476;-73
2023/06/12 09:09:41;;;;;;;10.43;9.70;;;27.90;50.60;;;;;;4992824;28;20773;-73
2023/06/12 09:12:13;;;;;;;9.87;9.20;;;27.90;50.50;;;;;;4992843;28;20445;-73
2023/06/12 09:14:48;;;;;;;9.33;8.63;;;28.00;50.70;;;;;;4975612;28;20429;-73
2023/06/12 09:17:25;;;;;;;9.17;8.47;;;28.00;50.60;;;;;;4975427;28;20541;-73
2023/06/12 09:19:53;;;;;;;11.40;10.40;;;28.00;50.60;;;;;;5001007;28;20439;-73
2023/06/12 09:22:23;;;;;;;9.47;8.77;;;28.00;50.60;;;;;;4994813;28;20412;-72
2023/06/12 09:24:55;;;;;;;10.23;9.53;;;28.10;50.60;;;;;;5012065;28;20424;-73
2023/06/12 09:27:23;;;;;;;10.00;9.30;;;28.10;50.50;;;;;;4994320;28;20396;-73
2023/06/12 09:30:00;;;;;;;9.80;9.10;;;28.10;50.50;;;;;;4978588;28;20848;-73
2023/06/12 09:32:30;;;;;;;9.60;8.87;;;28.20;50.60;;;;;;4994771;28;20397;-73
2023/06/12 09:34:56;;;;;;;9.67;9.07;;;28.20;50.60;;;;;;4994349;28;20453;-73
2023/06/12 09:37:22;;;;;;;10.30;9.60;;;28.20;50.60;;;;;;4993924;28;20420;-72
2023/06/12 09:39:48;;;;;;;9.53;8.93;;;28.20;50.60;;;;;;5011957;28;20405;-72
2023/06/12 09:42:20;;;;;;;10.57;9.67;;;28.30;50.60;;;;;;5012031;28;20459;-73
2023/06/12 09:44:46;;;;;;;9.27;8.67;;;28.30;50.60;;;;;;5011867;28;20429;-73
2023/06/12 09:47:12;;;;;;;10.27;9.67;;;28.30;50.50;;;;;;4978105;28;20519;-73
2023/06/12 09:49:41;;;;;;;10.30;9.60;;;28.40;50.60;;;;;;4977669;28;20427;-72
2023/06/12 09:52:07;;;;;;;9.53;8.93;;;28.40;50.60;;;;;;4978277;28;20417;-73
2023/06/12 09:54:40;;;;;;;10.00;9.40;;;28.40;50.50;;;;;;4994524;28;20448;-73
2023/06/12 09:57:08;;;;;;;9.50;8.80;;;28.40;50.40;;;;;;4962215;28;20455;-73
2023/06/12 09:59:34;;;;;;;10.13;9.43;;;28.50;50.50;;;;;;4978445;28;20405;-73
2023/06/12 10:02:11;;;;;;;10.10;9.40;;;28.50;50.40;;;;;;4978051;28;20423;-73
2023/06/12 10:04:51;;;;;;;11.23;10.10;;;28.50;50.40;;;;;;4995093;28;20443;-73
2023/06/12 10:07:28;;;;;;;10.77;10.07;;;28.60;50.40;;;;;;4977491;28;20425;-75
2023/06/12 10:10:02;;;;;;;10.10;9.40;;;28.60;50.20;;;;;;4991291;28;20405;-75
2023/06/12 10:12:32;;;;;;;10.30;9.60;;;28.60;50.10;;;;;;4991222;28;20474;-76
2023/06/12 10:15:03;;;;;;;9.40;8.60;;;28.70;50.20;;;;;;4991391;28;20525;-76
2023/06/12 10:17:31;;;;;;;9.53;8.93;;;28.70;50.20;;;;;;4990211;28;20452;-75
2023/06/12 10:19:58;;;;;;;10.60;9.90;;;28.70;50.20;;;;;;4991482;28;20413;-75
2023/06/12 10:22:24;;;;;;;10.00;9.10;;;28.70;50.10;;;;;;4974346;28;20460;-73
2023/06/12 10:24:50;;;;;;;10.37;9.67;;;28.80;50.10;;;;;;4973996;28;20516;-74
2023/06/12 10:27:18;;;;;;;9.60;8.90;;;28.90;50.20;;;;;;4974194;28;20795;-69
2023/06/12 10:29:57;;;;;;;10.57;9.77;;;28.90;50.10;;;;;;4974037;28;20402;-70
2023/06/12 10:32:26;;;;;;;9.53;8.93;;;28.90;50.00;;;;;;4991247;28;20898;-70
2023/06/12 10:34:54;;;;;;;10.00;9.20;;;28.90;49.80;;;;;;4991342;28;20461;-70
2023/06/12 10:37:23;;;;;;;10.17;9.37;;;29.00;50.40;;;;;;4974339;28;20512;-69
2023/06/12 10:40:10;;;;;;;9.73;8.93;;;29.00;49.70;;;;;;4974054;28;20957;-70
2023/06/12 10:43:02;;;;;;;10.30;9.60;;;29.00;49.60;;;;;;4972610;28;20778;-69
2023/06/12 10:45:38;;;;;;;12.20;11.40;;;29.10;49.50;;;;;;4972450;28;21149;-69
2023/06/12 10:48:05;;;;;;;11.67;10.77;;;29.10;49.40;;;;;;4989564;28;20961;-69
2023/06/12 10:50:33;;;;;;;10.40;9.60;;;29.20;49.30;;;;;;4989927;28;20441;-70
2023/06/12 10:53:04;;;;;;;9.80;9.00;;;29.20;49.20;;;;;;4988429;28;20409;-69
2023/06/12 10:55:37;;;;;;;10.70;9.80;;;29.20;49.10;;;;;;4972531;28;20620;-69
2023/06/12 10:58:12;;;;;;;10.40;9.73;;;29.30;49.10;;;;;;4990915;28;20499;-69
2023/06/12 11:00:47;;;;;;;10.27;9.57;;;29.30;49.00;;;;;;4957470;28;20401;-70
2023/06/12 11:03:30;;;;;;;9.87;9.17;;;29.40;49.00;;;;;;4993062;28;20480;-70
2023/06/12 11:06:13;;;;;;;9.37;8.77;;;29.40;48.80;;;;;;4999834;28;20589;-69
2023/06/12 11:08:42;;;;;;;9.30;8.70;;;29.40;48.80;;;;;;5012644;28;20416;-70
2023/06/12 11:11:11;;;;;;;9.13;8.53;;;29.40;48.70;;;;;;4989744;28;20420;-69
2023/06/12 11:13:44;;;;;;;9.67;9.07;;;29.50;48.60;;;;;;4993158;28;20418;-69
2023/06/12 11:16:16;;;;;;;9.93;9.30;;;29.50;48.60;;;;;;5002163;28;20520;-69
2023/06/12 11:18:44;;;;;;;10.30;9.40;;;29.50;48.50;;;;;;4956100;28;20971;-70
2023/06/12 11:21:11;;;;;;;9.53;8.90;;;29.60;48.50;;;;;;4974300;28;20431;-69
2023/06/12 11:23:43;;;;;;;9.57;8.97;;;29.60;48.50;;;;;;4977058;28;20178;-70
2023/06/12 11:26:09;;;;;;;10.00;9.17;;;29.60;48.50;;;;;;4992618;28;20464;-70
2023/06/12 11:28:35;;;;;;;10.17;9.50;;;29.70;48.40;;;;;;4993473;28;20401;-69
2023/06/12 11:31:02;;;;;;;10.13;9.43;;;29.80;48.40;;;;;;4976061;28;20494;-69
2023/06/12 11:33:32;;;;;;;9.70;9.00;;;29.80;48.30;;;;;;4960219;28;20456;-70
2023/06/12 11:35:59;;;;;;;11.37;10.30;;;29.80;48.30;;;;;;4976111;28;20461;-70
2023/06/12 11:38:28;;;;;;;9.30;8.70;;;29.90;48.30;;;;;;4976521;28;20489;-69
2023/06/12 11:40:54;;;;;;;10.53;9.90;;;29.90;48.20;;;;;;4976786;28;20465;-69
2023/06/12 11:43:24;;;;;;;10.47;9.73;;;29.90;48.20;;;;;;4993917;28;20406;-70
2023/06/12 11:45:55;;;;;;;10.23;9.53;;;30.00;48.30;;;;;;4993864;28;20472;-68
2023/06/12 11:48:21;;;;;;;9.03;8.53;;;30.00;48.10;;;;;;4944264;28;20551;-70
2023/06/12 11:50:52;;;;;;;10.50;9.80;;;30.00;48.10;;;;;;4976032;28;20495;-70
2023/06/12 11:53:23;;;;;;;9.40;8.80;;;30.00;48.10;;;;;;4992355;28;20440;-70
2023/06/12 11:56:00;;;;;;;10.93;10.20;;;30.10;48.10;;;;;;4992288;28;20480;-69
2023/06/12 11:58:32;;;;;;;10.20;9.50;;;30.10;48.00;;;;;;4976694;28;20429;-69
2023/06/12 12:01:11;;;;;;;9.60;8.90;;;30.10;48.00;;;;;;4976251;28;20425;-70
2023/06/12 12:03:40;;;;;;;10.00;9.30;;;30.20;48.00;;;;;;4995407;28;20445;-70
2023/06/12 12:06:08;;;;;;;11.47;10.70;;;30.20;48.00;;;;;;4979625;28;20479;-69
2023/06/12 12:08:40;;;;;;;11.07;10.20;;;30.20;48.00;;;;;;4995613;28;20401;-70
2023/06/12 12:11:21;;;;;;;10.43;9.53;;;30.20;47.90;;;;;;4995374;28;20413;-69
2023/06/12 12:14:01;;;;;;;9.97;9.37;;;30.30;47.90;;;;;;4978408;28;20474;-70
2023/06/12 12:16:39;;;;;;;10.50;9.80;;;30.30;47.90;;;;;;4994198;28;20459;-70
2023/06/12 12:19:26;;;;;;;10.43;9.70;;;30.30;47.80;;;;;;5011407;28;20406;-70
2023/06/12 12:21:57;;;;;;;10.40;9.60;;;30.40;47.90;;;;;;5011199;28;21127;-70
2023/06/12 12:24:25;;;;;;;10.50;9.80;;;30.40;47.80;;;;;;4977631;28;20594;-70
2023/06/12 12:26:57;;;;;;;10.77;10.07;;;30.40;48.30;;;;;;5009842;28;20563;-70
2023/06/12 12:29:23;;;;;;;10.37;9.63;;;30.40;47.70;;;;;;4993896;28;20527;-69
2023/06/12 12:31:49;;;;;;;10.50;9.80;;;30.50;47.70;;;;;;4978740;28;20606;-70
2023/06/12 12:34:15;;;;;;;10.63;9.93;;;30.50;47.60;;;;;;4994819;28;20499;-70
2023/06/12 12:36:48;;;;;;;10.90;10.20;;;30.50;47.60;;;;;;4981830;28;20600;-70
2023/06/12 12:39:19;;;;;;;10.03;9.37;;;30.60;47.60;;;;;;4991680;28;20190;-70
2023/06/12 12:41:45;;;;;;;10.30;9.60;;;30.60;47.70;;;;;;4974704;28;20425;-70
2023/06/12 12:44:15;;;;;;;11.13;10.43;;;30.60;47.50;;;;;;4957423;28;20421;-70
2023/06/12 12:46:41;;;;;;;10.10;9.40;;;30.60;47.50;;;;;;4958116;28;20182;-70
2023/06/12 12:49:07;;;;;;;11.93;11.17;;;30.70;47.60;;;;;;4991552;28;20406;-70
2023/06/12 12:51:36;;;;;;;10.73;10.03;;;30.70;47.60;;;;;;4973642;28;20445;-70
2023/06/12 12:54:04;;;;;;;10.87;10.07;;;30.70;47.40;;;;;;4957972;28;20892;-70
2023/06/12 12:56:30;;;;;;;11.40;10.70;;;30.70;47.40;;;;;;4974106;28;20624;-70